KLUK/LUK METAR and TAF weather

Enter ICAO airport designator
Station Type Date Time Source
KLUK METAR 2024/06/16 09:53 UTC NOAA

KLUK 160953Z AUTO 06003KT 9SM CLR 13/13 A3008 RMK AO2 SLP182 T01330128 $


Station Type Date Time Source
KLUK Decoded METAR 2024/06/16 09:53 UTC NOAA

CINCINNATI MUN LUNKEN FLD, OH, United States (KLUK) 39-06N 84-25W 155M
Jun 16, 2024 - 05:53 AM EDT / 2024.06.16 0953 UTC
Wind: from the ENE (060 degrees) at 3 MPH (3 KT):0
Visibility: 9 mile(s):0
Sky conditions: clear
Temperature: 55.9 F (13.3 C)
Dew Point: 55.0 F (12.8 C)
Relative Humidity: 96%
Pressure (altimeter): 30.08 in. Hg (1018 hPa)
ob: KLUK 160953Z AUTO 06003KT 9SM CLR 13/13 A3008 RMK AO2 SLP182 T01330128
cycle: 10

Station Type Date Time Source
KLUK TAF 2024/06/16 06:36 UTC NOAA